Time;durP1;ratioP1;P1;durP2;ratioP2;P2;SDS_P1;SDS_P2;PMS_P1;PMS_P2;Temp;Humidity;BMP_temperature;BMP_pressure;BME280_temperature;BME280_humidity;BME280_pressure;Samples;Min_cycle;Max_cycle;Signal;HPM_P1;HPM_P2
2023/07/01 00:02:10;;;;;;;14.02;5.70;;;24.30;96.70;;;;;;5005062;28;20057;-70
2023/07/01 00:04:38;;;;;;;10.55;6.22;;;24.30;96.70;;;;;;5021756;28;20434;-70
2023/07/01 00:07:06;;;;;;;9.52;6.10;;;24.30;96.70;;;;;;5011095;28;20419;-70
2023/07/01 00:09:34;;;;;;;9.93;5.35;;;24.30;96.70;;;;;;5019891;28;20051;-70
2023/07/01 00:12:04;;;;;;;11.88;6.45;;;24.30;96.70;;;;;;5018691;28;20077;-70
2023/07/01 00:14:32;;;;;;;12.85;6.72;;;24.30;96.70;;;;;;5004134;28;20053;-70
2023/07/01 00:17:02;;;;;;;11.30;6.07;;;24.30;96.70;;;;;;5022011;28;20046;-70
2023/07/01 00:19:30;;;;;;;10.65;6.35;;;24.20;96.70;;;;;;5012551;28;20161;-70
2023/07/01 00:21:59;;;;;;;10.93;6.55;;;24.20;96.70;;;;;;5004974;28;20033;-70
2023/07/01 00:24:27;;;;;;;11.60;6.53;;;24.20;96.70;;;;;;5017893;28;20128;-70
2023/07/01 00:26:56;;;;;;;8.88;5.78;;;24.30;96.70;;;;;;4999125;28;20453;-70
2023/07/01 00:29:27;;;;;;;9.02;5.53;;;24.10;96.70;;;;;;5004021;28;20148;-70
2023/07/01 00:31:55;;;;;;;9.05;6.07;;;24.20;96.70;;;;;;5016552;28;20050;-70
2023/07/01 00:34:24;;;;;;;9.88;5.30;;;24.20;96.70;;;;;;5016805;28;20042;-70
2023/07/01 01:40:22;;;;;;;7.13;5.13;;;23.70;96.70;;;;;;4979840;28;20573;-68
2023/07/01 01:42:55;;;;;;;8.43;4.45;;;23.60;96.70;;;;;;4977683;28;20472;-69
2023/07/01 01:45:23;;;;;;;8.63;5.10;;;23.50;96.70;;;;;;4988630;28;20521;-69
2023/07/01 01:47:52;;;;;;;9.43;4.97;;;23.60;96.70;;;;;;4978583;28;20452;-69
2023/07/01 03:52:27;;;;;;;8.32;3.95;;;22.40;96.70;;;;;;5002876;28;20462;-69
2023/07/01 03:54:56;;;;;;;5.45;3.80;;;22.30;96.70;;;;;;5004355;28;20054;-69
2023/07/01 03:57:24;;;;;;;6.18;3.65;;;22.30;96.70;;;;;;4987367;28;20136;-69
2023/07/01 04:08:20;;;;;;;4.32;2.97;;;22.20;96.70;;;;;;5003170;28;20071;-69
2023/07/01 04:10:48;;;;;;;4.68;3.05;;;22.10;96.70;;;;;;4998049;28;20442;-69
2023/07/01 04:13:16;;;;;;;7.00;3.85;;;22.30;96.70;;;;;;5022343;28;20049;-69
2023/07/01 04:15:44;;;;;;;6.57;3.47;;;22.40;96.70;;;;;;5007346;28;20079;-69
2023/07/01 05:30:10;;;;;;;6.13;3.72;;;23.00;96.70;;;;;;5008814;28;20084;-69
2023/07/01 05:32:38;;;;;;;7.05;4.47;;;23.00;96.70;;;;;;5006687;28;20498;-69
2023/07/01 05:35:06;;;;;;;5.22;3.90;;;23.00;96.70;;;;;;5009828;28;20065;-69
2023/07/01 05:37:35;;;;;;;13.68;7.85;;;23.20;96.70;;;;;;5025004;28;20050;-70
2023/07/01 05:40:03;;;;;;;20.15;11.07;;;23.30;96.70;;;;;;5023725;28;20144;-69
2023/07/01 05:42:31;;;;;;;12.68;7.70;;;23.30;96.70;;;;;;5024752;28;20048;-69
2023/07/01 05:44:59;;;;;;;12.65;7.88;;;23.40;96.70;;;;;;4984916;28;20049;-69
2023/07/01 05:47:28;;;;;;;14.00;7.80;;;23.50;96.70;;;;;;5010843;28;20061;-69
2023/07/01 05:49:56;;;;;;;12.65;7.38;;;23.50;96.70;;;;;;5000437;28;20056;-69
2023/07/01 05:52:24;;;;;;;9.10;4.72;;;23.50;96.70;;;;;;5015504;28;20068;-69
2023/07/01 05:54:54;;;;;;;7.80;5.05;;;23.40;96.70;;;;;;5024908;28;20045;-69
2023/07/01 05:57:22;;;;;;;5.07;3.47;;;23.60;96.70;;;;;;5006197;28;20507;-69
2023/07/01 05:59:50;;;;;;;5.13;3.67;;;23.60;96.70;;;;;;4994343;28;20129;-69
2023/07/01 06:02:17;;;;;;;4.28;3.25;;;23.70;96.70;;;;;;5001864;28;20038;-70
2023/07/01 06:04:47;;;;;;;5.30;3.00;;;23.70;96.70;;;;;;5017315;28;20128;-71
2023/07/01 06:07:15;;;;;;;3.83;2.65;;;23.80;96.70;;;;;;5001040;28;20049;-70
2023/07/01 06:09:47;;;;;;;4.20;2.58;;;23.90;96.70;;;;;;5013906;28;20041;-67
2023/07/01 06:12:15;;;;;;;3.60;2.70;;;23.80;96.70;;;;;;5002431;28;20088;-68
2023/07/01 06:14:43;;;;;;;3.83;2.70;;;23.90;96.70;;;;;;5016149;28;20107;-67
2023/07/01 06:17:12;;;;;;;5.72;3.10;;;24.00;96.70;;;;;;5008104;28;20125;-67
2023/07/01 06:19:39;;;;;;;4.57;3.15;;;24.00;96.70;;;;;;5008295;28;20116;-68
2023/07/01 06:22:09;;;;;;;3.78;2.58;;;23.90;96.70;;;;;;5023464;28;20117;-68
2023/07/01 06:24:46;;;;;;;4.28;2.45;;;23.90;96.70;;;;;;5016325;28;20600;-70
2023/07/01 06:27:14;;;;;;;4.22;2.70;;;23.90;96.70;;;;;;4998076;28;20137;-68
2023/07/01 06:29:41;;;;;;;3.85;3.10;;;24.00;96.70;;;;;;5023722;28;20075;-68
2023/07/01 06:32:09;;;;;;;3.97;3.03;;;24.10;96.70;;;;;;5019399;28;20096;-68
2023/07/01 06:34:38;;;;;;;7.13;3.78;;;24.00;96.70;;;;;;5005527;28;20046;-68
2023/07/01 06:37:08;;;;;;;5.43;3.78;;;24.00;96.70;;;;;;5023534;28;20041;-69
2023/07/01 06:39:36;;;;;;;5.90;3.05;;;24.00;96.70;;;;;;5002082;28;20842;-68
2023/07/01 06:42:06;;;;;;;3.90;2.47;;;23.90;96.70;;;;;;5023547;28;20037;-69
2023/07/01 06:44:34;;;;;;;5.38;2.97;;;24.00;96.70;;;;;;5022770;28;20033;-69
2023/07/01 06:47:03;;;;;;;6.18;3.33;;;24.10;96.70;;;;;;5023294;28;20072;-69
2023/07/01 06:49:30;;;;;;;7.13;3.08;;;24.10;96.70;;;;;;5001514;28;20352;-69
2023/07/01 06:51:58;;;;;;;4.25;2.95;;;24.10;96.70;;;;;;5022968;28;20593;-69
2023/07/01 06:54:28;;;;;;;4.93;2.78;;;24.10;96.70;;;;;;5023148;28;20049;-69
2023/07/01 06:56:55;;;;;;;7.45;3.20;;;24.10;96.70;;;;;;5005316;28;20518;-68
2023/07/01 06:59:23;;;;;;;5.07;2.40;;;24.10;96.70;;;;;;4999745;28;20053;-69
2023/07/01 07:01:51;;;;;;;3.72;2.65;;;24.20;96.70;;;;;;4989136;28;20111;-68
2023/07/01 07:04:18;;;;;;;3.70;2.58;;;24.20;96.70;;;;;;5003619;28;20612;-69
2023/07/01 07:06:46;;;;;;;5.90;2.60;;;24.20;96.70;;;;;;5015010;28;20050;-69
2023/07/01 07:09:15;;;;;;;3.97;2.70;;;24.20;96.70;;;;;;5023849;28;20073;-69
2023/07/01 07:11:50;;;;;;;4.75;2.75;;;24.30;96.70;;;;;;5005468;28;20050;-69
2023/07/01 07:14:18;;;;;;;4.60;2.90;;;24.30;96.70;;;;;;5016112;28;20092;-69
2023/07/01 07:16:49;;;;;;;3.97;2.45;;;24.30;96.70;;;;;;5021351;28;20128;-68
2023/07/01 07:19:16;;;;;;;5.28;3.03;;;24.40;96.70;;;;;;4980215;28;20053;-69
2023/07/01 07:21:44;;;;;;;4.25;2.60;;;24.40;96.70;;;;;;5023226;28;20049;-69
2023/07/01 07:24:13;;;;;;;4.13;2.60;;;24.50;96.70;;;;;;5009583;28;20525;-69
2023/07/01 07:26:42;;;;;;;3.85;2.63;;;24.60;96.70;;;;;;5000839;28;20038;-69
2023/07/01 07:29:11;;;;;;;4.93;2.58;;;24.70;96.70;;;;;;5002716;28;20530;-69
2023/07/01 07:31:39;;;;;;;5.07;2.90;;;24.60;96.70;;;;;;5021660;28;20083;-69
2023/07/01 07:34:07;;;;;;;6.32;2.88;;;24.60;96.70;;;;;;5006088;28;20064;-69
2023/07/01 07:36:35;;;;;;;3.67;2.65;;;24.70;96.70;;;;;;5004741;28;20041;-69
2023/07/01 07:39:04;;;;;;;4.05;2.70;;;24.70;96.70;;;;;;5022569;28;20049;-69
2023/07/01 07:41:31;;;;;;;5.53;3.05;;;24.60;96.70;;;;;;5000867;28;20100;-69
2023/07/01 07:43:59;;;;;;;5.07;2.65;;;24.60;96.70;;;;;;5004985;28;20046;-69
2023/07/01 07:46:28;;;;;;;5.25;3.05;;;24.60;96.70;;;;;;5003390;28;20041;-68
2023/07/01 07:48:56;;;;;;;4.70;2.88;;;24.60;96.70;;;;;;5000707;28;20194;-73
2023/07/01 07:51:24;;;;;;;5.47;3.58;;;24.70;96.70;;;;;;5026685;28;20068;-75
2023/07/01 07:53:52;;;;;;;5.53;4.05;;;24.70;96.70;;;;;;5025727;28;20073;-71
2023/07/01 07:56:20;;;;;;;6.32;3.80;;;24.80;96.70;;;;;;4990856;28;20097;-72
2023/07/01 07:58:48;;;;;;;6.22;3.40;;;24.80;96.70;;;;;;5008479;28;20084;-72
2023/07/01 08:01:16;;;;;;;6.07;3.42;;;24.90;96.70;;;;;;5024930;28;20125;-70
2023/07/01 08:03:45;;;;;;;5.53;3.70;;;24.80;96.70;;;;;;5025445;28;20079;-70
2023/07/01 08:06:13;;;;;;;7.22;4.57;;;24.90;96.70;;;;;;5025736;28;20063;-70
2023/07/01 08:08:41;;;;;;;5.28;4.30;;;25.00;96.70;;;;;;5004942;28;20048;-71
2023/07/01 08:11:09;;;;;;;5.57;3.88;;;25.10;96.70;;;;;;5004115;28;20040;-70
2023/07/01 08:13:37;;;;;;;8.13;4.97;;;25.20;96.70;;;;;;5025109;28;20049;-70
2023/07/01 08:16:05;;;;;;;7.05;5.10;;;25.20;96.70;;;;;;5017396;28;20049;-70
2023/07/01 08:18:33;;;;;;;5.70;4.38;;;25.30;96.70;;;;;;5007514;28;20922;-70
2023/07/01 08:21:02;;;;;;;6.07;4.10;;;25.30;96.70;;;;;;5022527;28;20037;-70
2023/07/01 08:23:30;;;;;;;7.03;4.60;;;25.30;96.70;;;;;;5021201;28;20045;-70
2023/07/01 08:25:58;;;;;;;5.43;4.20;;;25.20;96.70;;;;;;5001954;28;20039;-69
2023/07/01 08:28:31;;;;;;;9.43;6.22;;;25.30;96.70;;;;;;5006371;28;20052;-69
2023/07/01 08:30:59;;;;;;;7.50;4.20;;;25.40;96.70;;;;;;5006458;28;20051;-71
2023/07/01 08:33:28;;;;;;;5.57;4.13;;;25.50;96.70;;;;;;5004625;28;20050;-70
2023/07/01 08:35:59;;;;;;;9.27;4.68;;;25.50;96.70;;;;;;4986447;28;20403;-70
2023/07/01 08:38:31;;;;;;;5.50;4.07;;;25.60;96.70;;;;;;5001503;28;20042;-71
2023/07/01 08:41:03;;;;;;;7.30;4.93;;;25.70;96.70;;;;;;4986325;28;20046;-70
2023/07/01 08:43:33;;;;;;;6.65;3.67;;;25.80;96.70;;;;;;4991786;28;20037;-69
2023/07/01 08:46:08;;;;;;;6.03;4.05;;;25.80;96.70;;;;;;4998451;28;20045;-73
2023/07/01 08:48:38;;;;;;;5.75;4.28;;;25.80;96.70;;;;;;5002321;28;20038;-71
2023/07/01 08:51:12;;;;;;;5.93;3.70;;;25.90;96.70;;;;;;4996835;28;20073;-70
2023/07/01 08:53:42;;;;;;;11.43;9.95;;;25.90;96.70;;;;;;5005687;28;20050;-70
2023/07/01 08:56:13;;;;;;;7.78;6.05;;;26.00;96.70;;;;;;5004167;28;20112;-70
2023/07/01 08:58:41;;;;;;;6.78;4.47;;;26.00;96.70;;;;;;4995984;28;20388;-69
2023/07/01 09:01:09;;;;;;;8.65;4.40;;;26.10;96.70;;;;;;4986713;28;20436;-70
2023/07/01 09:03:37;;;;;;;6.03;4.70;;;26.20;96.70;;;;;;4984906;28;20779;-71
2023/07/01 09:06:06;;;;;;;6.18;4.50;;;26.30;96.70;;;;;;4987568;28;20081;-72
2023/07/01 09:08:38;;;;;;;5.95;4.35;;;26.40;96.70;;;;;;4982332;28;20133;-70
2023/07/01 09:11:11;;;;;;;6.68;4.55;;;26.50;96.70;;;;;;4984243;28;20039;-70
2023/07/01 09:13:39;;;;;;;4.63;3.60;;;26.70;96.70;;;;;;4986366;28;20137;-71
2023/07/01 09:16:07;;;;;;;4.68;3.83;;;26.80;96.70;;;;;;4985959;28;20105;-70
2023/07/01 09:18:35;;;;;;;4.63;3.65;;;26.80;96.70;;;;;;4982174;28;20555;-71
2023/07/01 09:21:17;;;;;;;7.07;4.05;;;26.90;96.70;;;;;;4982782;28;20478;-70
2023/07/01 09:23:47;;;;;;;5.22;3.97;;;27.00;96.70;;;;;;4988276;28;20042;-72
2023/07/01 09:26:20;;;;;;;8.20;4.32;;;26.90;96.70;;;;;;4983114;28;20459;-70
2023/07/01 09:28:53;;;;;;;6.38;4.07;;;26.90;96.70;;;;;;4984981;28;20046;-72
2023/07/01 09:31:20;;;;;;;5.47;4.03;;;26.90;96.70;;;;;;4982608;28;20875;-70
2023/07/01 09:34:00;;;;;;;5.40;4.07;;;26.70;96.70;;;;;;4972687;28;20387;-70
2023/07/01 09:36:29;;;;;;;4.63;4.03;;;26.60;96.70;;;;;;4985280;28;20065;-71
2023/07/01 09:38:59;;;;;;;7.70;4.50;;;26.50;96.70;;;;;;4987624;28;20074;-70
2023/07/01 09:41:28;;;;;;;7.45;4.60;;;26.50;96.70;;;;;;4989110;28;20414;-70
2023/07/01 09:43:58;;;;;;;7.20;4.78;;;26.60;96.70;;;;;;4983087;28;20045;-71
2023/07/01 09:46:40;;;;;;;6.00;4.22;;;26.70;96.70;;;;;;4987491;28;20038;-70
2023/07/01 09:49:08;;;;;;;7.95;4.72;;;26.80;96.70;;;;;;4983666;28;20051;-71
2023/07/01 09:51:48;;;;;;;6.72;4.43;;;26.90;96.70;;;;;;4987699;28;20065;-70
2023/07/01 09:54:24;;;;;;;5.88;3.90;;;27.10;96.70;;;;;;4980821;28;20054;-71
2023/07/01 09:56:58;;;;;;;6.15;4.13;;;27.20;96.70;;;;;;4993679;28;20052;-70
2023/07/01 09:59:27;;;;;;;6.85;4.03;;;27.30;96.70;;;;;;4997359;28;20049;-70
2023/07/01 10:01:56;;;;;;;6.22;4.63;;;27.20;96.70;;;;;;5000128;28;20065;-70
2023/07/01 10:04:28;;;;;;;10.13;7.20;;;27.10;96.70;;;;;;5001143;28;20558;-70
2023/07/01 10:06:59;;;;;;;6.78;4.85;;;27.20;96.70;;;;;;5002386;28;20041;-70
2023/07/01 10:09:27;;;;;;;8.88;5.00;;;27.30;96.70;;;;;;4984889;28;20445;-71
2023/07/01 10:12:05;;;;;;;6.07;4.03;;;27.40;96.70;;;;;;4981076;28;20136;-71
2023/07/01 10:14:35;;;;;;;5.78;4.55;;;27.60;96.70;;;;;;4982777;28;20042;-68
2023/07/01 10:17:03;;;;;;;5.03;4.30;;;27.80;96.70;;;;;;4983322;28;20141;-70
2023/07/01 10:19:32;;;;;;;6.63;4.60;;;27.80;96.70;;;;;;4966894;28;20700;-71
2023/07/01 10:22:20;;;;;;;7.40;4.20;;;28.10;96.70;;;;;;4983887;28;20100;-69
2023/07/01 10:24:57;;;;;;;4.70;3.88;;;28.10;96.70;;;;;;4983877;28;20038;-70
2023/07/01 10:28:14;;;;;;;6.40;4.07;;;27.80;96.70;;;;;;4985567;28;20050;-71
2023/07/01 10:31:12;;;;;;;7.38;4.63;;;27.50;96.70;;;;;;4982572;28;20078;-71
2023/07/01 10:33:54;;;;;;;6.47;4.10;;;27.50;96.70;;;;;;4983936;28;20058;-70
2023/07/01 10:36:23;;;;;;;6.57;4.38;;;27.40;96.70;;;;;;5002596;28;20080;-69
2023/07/01 10:38:51;;;;;;;5.63;4.22;;;27.60;96.70;;;;;;5003128;28;20049;-69
2023/07/01 10:41:51;;;;;;;4.78;3.90;;;27.90;96.70;;;;;;4984231;28;20128;-69
2023/07/01 10:44:24;;;;;;;6.70;4.10;;;27.90;96.70;;;;;;4980057;28;20121;-69
2023/07/01 10:47:15;;;;;;;4.43;3.78;;;28.30;96.70;;;;;;4981661;28;20050;-69
2023/07/01 10:50:14;;;;;;;6.05;4.43;;;28.50;96.70;;;;;;4983475;28;20042;-69
2023/07/01 10:53:02;;;;;;;5.35;4.28;;;28.40;96.70;;;;;;4927896;29;20086;-68
2023/07/01 10:55:43;;;;;;;6.50;3.45;;;28.50;96.70;;;;;;4908220;29;20065;-69
2023/07/01 10:58:21;;;;;;;4.47;3.33;;;28.80;96.70;;;;;;4922266;29;20048;-69
2023/07/01 11:00:50;;;;;;;5.30;3.95;;;29.00;96.70;;;;;;4912031;29;20051;-69
2023/07/01 11:03:57;;;;;;;5.93;4.30;;;29.20;96.70;;;;;;4919663;29;20151;-69
2023/07/01 11:06:26;;;;;;;4.80;3.88;;;29.50;96.70;;;;;;4924809;29;20568;-69
2023/07/01 11:08:56;;;;;;;5.00;4.10;;;29.60;96.70;;;;;;4927160;29;20044;-69
2023/07/01 11:11:25;;;;;;;6.28;4.75;;;29.70;96.70;;;;;;4918970;29;20056;-69
2023/07/01 11:13:59;;;;;;;5.07;4.10;;;29.80;96.70;;;;;;4923092;29;20055;-69
2023/07/01 11:16:30;;;;;;;5.32;4.07;;;30.10;96.70;;;;;;4933123;29;20055;-69
2023/07/01 11:19:02;;;;;;;4.20;3.60;;;30.20;96.70;;;;;;4923840;29;20175;-71
2023/07/01 11:21:31;;;;;;;6.30;5.68;;;30.30;96.70;;;;;;4942035;29;20067;-71
2023/07/01 11:24:01;;;;;;;4.78;4.28;;;30.40;96.70;;;;;;4918381;29;20043;-69
2023/07/01 11:26:30;;;;;;;6.35;4.68;;;30.50;96.70;;;;;;4961759;28;20062;-70
2023/07/01 11:28:59;;;;;;;4.90;3.97;;;30.50;96.70;;;;;;5003612;28;20054;-71
2023/07/01 11:31:31;;;;;;;6.00;4.53;;;30.20;96.70;;;;;;5002902;28;20446;-70
2023/07/01 11:34:02;;;;;;;5.10;4.13;;;30.10;96.70;;;;;;5003159;28;20050;-69
2023/07/01 11:36:36;;;;;;;5.55;4.43;;;30.30;96.70;;;;;;5002839;28;20507;-68
2023/07/01 11:39:08;;;;;;;6.43;4.28;;;30.60;96.70;;;;;;5003504;28;20407;-69
2023/07/01 11:41:37;;;;;;;7.32;4.32;;;30.90;96.70;;;;;;5000883;28;20507;-69
2023/07/01 11:44:08;;;;;;;6.00;3.80;;;30.90;96.70;;;;;;5003238;28;20064;-69
2023/07/01 11:46:37;;;;;;;8.15;4.45;;;31.10;96.70;;;;;;5002564;28;20096;-69
2023/07/01 11:49:17;;;;;;;7.03;3.80;;;30.90;96.70;;;;;;4993060;28;20332;-69
2023/07/01 11:51:47;;;;;;;6.55;4.18;;;30.50;96.70;;;;;;5001418;28;20073;-69
2023/07/01 11:54:18;;;;;;;4.97;3.38;;;30.30;96.70;;;;;;4972398;28;20073;-69
2023/07/01 11:56:47;;;;;;;9.90;3.90;;;30.10;96.70;;;;;;4982796;28;20047;-69
2023/07/01 11:59:29;;;;;;;5.20;3.67;;;29.90;96.70;;;;;;4979954;28;20557;-69
2023/07/01 12:01:58;;;;;;;4.00;3.40;;;29.80;96.70;;;;;;4981690;28;20046;-69
2023/07/01 12:04:28;;;;;;;6.10;3.92;;;29.70;96.70;;;;;;4982131;28;20693;-69
2023/07/01 12:07:10;;;;;;;4.65;3.85;;;29.70;96.70;;;;;;4980058;28;20137;-69
2023/07/01 12:09:42;;;;;;;5.20;3.55;;;29.70;96.70;;;;;;4990817;28;20050;-69
2023/07/01 12:12:11;;;;;;;7.03;3.70;;;29.80;96.70;;;;;;4993660;28;20388;-68
2023/07/01 12:14:39;;;;;;;4.78;3.85;;;29.70;96.70;;;;;;4986675;28;20054;-70
2023/07/01 12:17:22;;;;;;;4.70;4.05;;;29.70;96.70;;;;;;4989543;28;20546;-68
2023/07/01 12:19:52;;;;;;;4.35;3.40;;;30.10;96.70;;;;;;4978938;28;20493;-68
2023/07/01 12:22:20;;;;;;;5.95;3.70;;;30.60;96.70;;;;;;4980728;28;20371;-67
2023/07/01 12:24:54;;;;;;;4.95;3.97;;;30.70;96.70;;;;;;4982381;28;20403;-68
2023/07/01 12:27:22;;;;;;;6.45;3.90;;;30.80;96.70;;;;;;4983549;28;20125;-69
2023/07/01 12:29:51;;;;;;;6.28;3.72;;;30.50;96.70;;;;;;4980644;28;20214;-70
2023/07/01 12:32:19;;;;;;;4.68;3.63;;;30.40;96.70;;;;;;4987516;28;20050;-69
2023/07/01 12:34:47;;;;;;;5.45;3.78;;;30.20;96.70;;;;;;4987740;28;20042;-69
2023/07/01 12:37:17;;;;;;;6.22;3.70;;;29.90;96.70;;;;;;4982077;28;20096;-69
2023/07/01 12:39:46;;;;;;;5.45;3.65;;;29.80;96.70;;;;;;4987010;28;20045;-70
2023/07/01 12:42:15;;;;;;;5.30;4.40;;;29.50;96.70;;;;;;4986813;28;20146;-67
2023/07/01 12:44:45;;;;;;;5.90;4.47;;;29.30;96.70;;;;;;4989895;28;20053;-68
2023/07/01 12:47:13;;;;;;;5.57;4.50;;;29.40;96.70;;;;;;4980777;28;21476;-68
2023/07/01 12:49:41;;;;;;;8.23;4.30;;;29.40;96.70;;;;;;4983362;28;20046;-68
2023/07/01 12:52:09;;;;;;;5.55;3.90;;;29.50;96.70;;;;;;5001454;28;20061;-68
2023/07/01 12:54:39;;;;;;;5.57;3.85;;;29.40;96.70;;;;;;4987866;28;20061;-68
2023/07/01 12:57:07;;;;;;;5.63;3.83;;;29.50;96.70;;;;;;4984898;28;20305;-68
2023/07/01 12:59:35;;;;;;;5.20;3.80;;;29.70;96.70;;;;;;5004732;28;21712;-68
2023/07/01 13:02:04;;;;;;;5.45;4.05;;;30.10;96.70;;;;;;5001661;28;20112;-69
2023/07/01 13:04:33;;;;;;;4.78;3.88;;;30.20;96.70;;;;;;5019133;28;20567;-69
2023/07/01 13:07:01;;;;;;;5.97;4.13;;;30.30;96.70;;;;;;5019662;28;20046;-68
2023/07/01 13:09:41;;;;;;;7.43;4.32;;;30.00;96.70;;;;;;5004352;28;20087;-68
2023/07/01 13:12:09;;;;;;;6.00;4.47;;;29.80;96.70;;;;;;4973429;28;20107;-68
2023/07/01 13:14:37;;;;;;;6.13;4.05;;;29.50;96.70;;;;;;4983291;28;20728;-68
2023/07/01 13:17:06;;;;;;;5.22;4.30;;;29.50;96.70;;;;;;5002876;28;20049;-68
2023/07/01 13:19:34;;;;;;;7.88;5.10;;;29.30;96.70;;;;;;4983908;28;20519;-68
2023/07/01 13:22:03;;;;;;;6.72;4.55;;;29.30;96.70;;;;;;5023972;28;20525;-68
2023/07/01 13:24:36;;;;;;;6.25;5.20;;;29.00;96.70;;;;;;5017774;28;20069;-68
2023/07/01 13:27:09;;;;;;;5.07;4.28;;;29.00;96.70;;;;;;5024539;28;20037;-68
2023/07/01 13:29:38;;;;;;;6.35;4.68;;;29.80;96.70;;;;;;5024702;28;20125;-68
2023/07/01 13:32:06;;;;;;;5.53;4.55;;;30.40;96.70;;;;;;5020130;28;20053;-68
2023/07/01 13:34:40;;;;;;;8.00;5.15;;;30.80;96.70;;;;;;5006300;28;20042;-69
2023/07/01 13:37:11;;;;;;;6.95;5.45;;;30.90;96.70;;;;;;5025063;28;20140;-68
2023/07/01 13:39:42;;;;;;;6.07;4.72;;;31.00;96.70;;;;;;5024702;28;20518;-68
2023/07/01 13:42:14;;;;;;;7.60;5.13;;;30.80;96.70;;;;;;5015674;28;20524;-69
2023/07/01 13:44:44;;;;;;;6.38;4.68;;;30.70;96.70;;;;;;5011206;28;20133;-71
2023/07/01 13:47:13;;;;;;;6.22;4.85;;;30.80;96.70;;;;;;5007851;28;21395;-71
2023/07/01 13:49:41;;;;;;;5.63;4.88;;;31.10;96.70;;;;;;4992664;28;20554;-68
2023/07/01 13:52:09;;;;;;;7.28;5.03;;;31.70;96.70;;;;;;5024143;28;20161;-69
2023/07/01 13:54:39;;;;;;;8.52;4.63;;;32.20;96.70;;;;;;5024983;28;20132;-70
2023/07/01 13:57:27;;;;;;;7.13;5.22;;;32.40;96.70;;;;;;5010521;28;20611;-69
2023/07/01 13:59:55;;;;;;;6.28;4.75;;;32.30;96.70;;;;;;5012691;28;20056;-69
2023/07/01 14:02:24;;;;;;;6.07;5.07;;;32.50;96.70;;;;;;5005025;28;20038;-69
2023/07/01 14:04:52;;;;;;;7.15;5.07;;;32.70;96.70;;;;;;5004765;28;20069;-69
2023/07/01 14:07:24;;;;;;;7.43;4.80;;;32.40;96.70;;;;;;5003566;28;20403;-68
2023/07/01 14:09:52;;;;;;;8.50;5.10;;;32.20;96.70;;;;;;5006506;28;20038;-69
2023/07/01 14:12:22;;;;;;;7.40;5.22;;;31.60;96.70;;;;;;5008406;28;20080;-70
2023/07/01 14:14:50;;;;;;;7.00;4.97;;;32.10;96.70;;;;;;5004721;28;20049;-69
2023/07/01 14:17:18;;;;;;;8.50;6.10;;;32.60;96.70;;;;;;5007388;28;20064;-69
2023/07/01 14:19:53;;;;;;;6.88;5.18;;;32.90;96.70;;;;;;5004034;28;20130;-70
2023/07/01 14:22:23;;;;;;;5.73;5.07;;;33.30;96.70;;;;;;5002078;28;20065;-70
2023/07/01 14:24:54;;;;;;;7.65;5.90;;;33.60;96.70;;;;;;5007605;28;20770;-70
2023/07/01 14:27:29;;;;;;;6.72;5.28;;;33.80;96.70;;;;;;4988729;28;20341;-70
2023/07/01 14:29:56;;;;;;;6.85;5.45;;;33.60;96.70;;;;;;4981604;28;20044;-70
2023/07/01 14:32:24;;;;;;;6.50;4.72;;;32.70;96.70;;;;;;5001549;28;20038;-70
2023/07/01 14:34:52;;;;;;;9.77;5.43;;;31.90;96.70;;;;;;5002757;28;20042;-69
2023/07/01 14:37:20;;;;;;;7.80;5.70;;;31.30;96.70;;;;;;4999113;28;20053;-70
2023/07/01 14:39:53;;;;;;;6.15;5.32;;;31.00;96.70;;;;;;4984144;28;20577;-70
2023/07/01 14:42:25;;;;;;;5.68;4.80;;;30.70;96.70;;;;;;5014470;28;20761;-71
2023/07/01 14:44:54;;;;;;;7.20;4.88;;;30.30;96.70;;;;;;4982040;28;20042;-70
2023/07/01 14:47:21;;;;;;;8.38;5.97;;;30.10;96.70;;;;;;5000655;28;20054;-69
2023/07/01 14:49:49;;;;;;;9.05;5.43;;;29.90;96.70;;;;;;4990348;28;20044;-70
2023/07/01 14:52:17;;;;;;;8.05;5.13;;;29.70;96.70;;;;;;5003868;28;20061;-69
2023/07/01 14:54:47;;;;;;;9.10;5.28;;;29.50;96.70;;;;;;5003185;28;20046;-69
2023/07/01 14:57:15;;;;;;;7.40;6.03;;;29.20;96.70;;;;;;5017277;28;20034;-70
2023/07/01 14:59:44;;;;;;;6.70;5.07;;;28.90;96.70;;;;;;5017639;28;20045;-72
2023/07/01 15:02:12;;;;;;;6.47;5.32;;;28.80;96.70;;;;;;5021498;28;20045;-69
2023/07/01 15:04:39;;;;;;;9.20;5.57;;;28.60;96.70;;;;;;4999604;28;20126;-70
2023/07/01 15:07:08;;;;;;;8.68;6.28;;;28.40;96.70;;;;;;5000329;28;20123;-70
2023/07/01 15:09:36;;;;;;;6.25;4.53;;;28.20;96.70;;;;;;5007081;28;20048;-69
2023/07/01 15:12:04;;;;;;;7.78;5.22;;;28.30;96.70;;;;;;5010146;28;20047;-69
2023/07/01 15:14:32;;;;;;;7.60;5.40;;;28.30;96.70;;;;;;5008408;28;20069;-72
2023/07/01 15:17:02;;;;;;;7.50;5.10;;;28.10;96.70;;;;;;4998614;28;20050;-70
2023/07/01 15:19:30;;;;;;;6.90;4.63;;;28.10;96.70;;;;;;4994457;28;20037;-72
2023/07/01 15:21:58;;;;;;;7.10;4.80;;;28.10;96.70;;;;;;4990364;28;20529;-73
2023/07/01 15:24:26;;;;;;;7.35;5.53;;;28.10;96.70;;;;;;4983537;28;20044;-73
2023/07/01 15:26:54;;;;;;;8.02;5.28;;;28.20;96.70;;;;;;5006134;28;20033;-72
2023/07/01 15:29:22;;;;;;;8.20;5.45;;;28.10;96.70;;;;;;5000810;28;20737;-70
2023/07/01 15:31:50;;;;;;;9.60;4.60;;;28.10;96.70;;;;;;5002938;28;20121;-70
2023/07/01 15:34:19;;;;;;;8.68;5.40;;;28.90;96.70;;;;;;5002801;28;20113;-70
2023/07/01 15:36:48;;;;;;;8.10;5.03;;;30.30;96.70;;;;;;5006387;28;20577;-72
2023/07/01 15:39:16;;;;;;;7.03;4.72;;;30.90;96.70;;;;;;4987640;28;20670;-72
2023/07/01 15:41:47;;;;;;;6.95;5.05;;;31.70;96.70;;;;;;4987256;28;20038;-71
2023/07/01 15:44:15;;;;;;;8.57;4.75;;;32.00;96.70;;;;;;5007926;28;20511;-71
2023/07/01 15:46:43;;;;;;;5.72;4.95;;;32.10;96.70;;;;;;4987046;28;20180;-70
2023/07/01 15:49:11;;;;;;;8.75;4.80;;;32.20;96.70;;;;;;5001556;28;20084;-70
2023/07/01 15:51:41;;;;;;;9.35;5.15;;;32.20;96.70;;;;;;4998663;28;20050;-69
2023/07/01 15:54:12;;;;;;;6.28;4.50;;;32.70;96.70;;;;;;4998148;28;20046;-70
2023/07/01 15:56:40;;;;;;;6.70;4.60;;;32.60;96.70;;;;;;5023608;28;20072;-70
2023/07/01 15:59:09;;;;;;;8.50;4.97;;;31.60;96.70;;;;;;5020918;28;20267;-70
2023/07/01 16:01:36;;;;;;;6.30;4.68;;;31.80;96.70;;;;;;4988919;28;20525;-70
2023/07/01 16:04:04;;;;;;;8.68;4.90;;;32.10;96.70;;;;;;5003585;28;20037;-70
2023/07/01 16:06:33;;;;;;;9.10;5.25;;;32.50;96.70;;;;;;5021654;28;20045;-70
2023/07/01 16:09:25;;;;;;;6.57;4.50;;;32.40;96.70;;;;;;5001918;28;20490;-70
2023/07/01 16:11:53;;;;;;;5.68;4.68;;;32.20;96.70;;;;;;5010748;28;20103;-70
2023/07/01 16:14:21;;;;;;;6.60;4.78;;;32.80;96.70;;;;;;5008558;28;20049;-69
2023/07/01 16:16:49;;;;;;;7.03;4.35;;;33.10;96.70;;;;;;5025669;28;20053;-69
2023/07/01 16:19:17;;;;;;;5.22;4.32;;;33.70;96.70;;;;;;5005657;28;20049;-69
2023/07/01 16:21:46;;;;;;;4.65;4.03;;;33.90;96.70;;;;;;5025465;28;20069;-71
2023/07/01 16:24:48;;;;;;;6.07;4.22;;;33.70;96.70;;;;;;5022163;28;20069;-70
2023/07/01 16:27:17;;;;;;;7.50;4.47;;;33.50;96.70;;;;;;5026212;28;20566;-70
2023/07/01 16:29:46;;;;;;;5.85;4.18;;;33.50;96.70;;;;;;5025027;28;20033;-69
2023/07/01 16:32:20;;;;;;;6.15;3.85;;;33.40;96.70;;;;;;5026163;28;20037;-69
2023/07/01 16:34:48;;;;;;;6.05;4.38;;;34.00;96.70;;;;;;4997552;28;20069;-69
2023/07/01 16:37:16;;;;;;;5.53;4.40;;;34.40;96.70;;;;;;4975265;28;20456;-70
2023/07/01 16:39:49;;;;;;;6.90;4.40;;;34.20;96.70;;;;;;5004912;28;20049;-72
2023/07/01 16:42:19;;;;;;;6.22;4.32;;;34.40;96.70;;;;;;5007326;28;20049;-71
2023/07/01 16:44:50;;;;;;;6.50;4.20;;;34.70;96.70;;;;;;5011289;28;20043;-71
2023/07/01 16:47:20;;;;;;;5.13;4.47;;;34.60;96.70;;;;;;5017221;28;20050;-71
2023/07/01 16:49:49;;;;;;;4.80;3.88;;;34.50;96.70;;;;;;5012340;28;20492;-73
2023/07/01 16:52:26;;;;;;;4.70;3.97;;;34.90;96.70;;;;;;4999483;28;20073;-71
2023/07/01 16:54:56;;;;;;;5.63;4.30;;;34.70;96.70;;;;;;5002945;28;20125;-71
2023/07/01 16:57:24;;;;;;;6.03;3.78;;;34.20;96.70;;;;;;4989681;28;20076;-71
2023/07/01 16:59:52;;;;;;;5.78;4.95;;;34.50;96.70;;;;;;5007386;28;20026;-71
2023/07/01 17:02:58;;;;;;;6.05;4.65;;;35.00;96.70;;;;;;5000534;28;20811;-71
2023/07/01 17:05:27;;;;;;;4.85;4.15;;;35.40;96.70;;;;;;5005958;28;20051;-70
2023/07/01 17:07:56;;;;;;;7.88;4.50;;;34.40;96.70;;;;;;4989833;28;20038;-70
2023/07/01 17:10:42;;;;;;;6.18;3.55;;;34.20;96.70;;;;;;4989176;28;20145;-70
2023/07/01 17:13:35;;;;;;;4.22;3.72;;;34.10;96.70;;;;;;4987734;28;20056;-70
2023/07/01 17:16:05;;;;;;;5.40;3.83;;;33.50;96.70;;;;;;5004870;28;20061;-71
2023/07/01 17:18:34;;;;;;;5.70;4.35;;;33.70;96.70;;;;;;4988481;28;20057;-70
2023/07/01 17:21:02;;;;;;;5.10;4.03;;;33.70;96.70;;;;;;5011966;28;20041;-70
2023/07/01 17:23:30;;;;;;;5.93;3.80;;;33.80;96.70;;;;;;5006677;28;20111;-69
2023/07/01 17:25:59;;;;;;;5.45;4.20;;;34.40;96.70;;;;;;5004289;28;20061;-70
2023/07/01 17:28:27;;;;;;;4.65;3.90;;;34.80;96.70;;;;;;5025237;28;20049;-71
2023/07/01 17:30:55;;;;;;;5.68;4.00;;;34.20;96.70;;;;;;5014645;28;20487;-71